createdAt,value
2018-10-07T00:00:37.803Z,996.50
2018-10-07T00:01:37.804Z,996.47
2018-10-07T00:02:37.786Z,996.48
2018-10-07T00:03:37.771Z,996.46
2018-10-07T00:04:37.800Z,996.50
2018-10-07T00:05:37.750Z,996.49
2018-10-07T00:06:37.747Z,996.50
2018-10-07T00:07:37.731Z,996.57
2018-10-07T00:08:37.748Z,996.54
2018-10-07T00:09:37.720Z,996.49
2018-10-07T00:10:37.693Z,996.46
2018-10-07T00:11:37.675Z,996.47
2018-10-07T00:12:37.675Z,996.50
2018-10-07T00:13:37.657Z,996.51
2018-10-07T00:14:37.708Z,996.52
2018-10-07T00:15:37.643Z,996.52
2018-10-07T00:16:37.610Z,996.54
2018-10-07T00:17:37.611Z,996.55
2018-10-07T00:18:37.604Z,996.61
2018-10-07T00:19:37.588Z,996.64
2018-10-07T00:20:37.609Z,996.65
2018-10-07T00:21:37.556Z,996.71
2018-10-07T00:22:37.543Z,996.69
2018-10-07T00:23:37.549Z,996.76
2018-10-07T00:24:37.513Z,996.68
2018-10-07T00:25:37.576Z,996.70
2018-10-07T00:26:37.505Z,996.70
2018-10-07T00:27:37.494Z,996.70
2018-10-07T00:28:37.482Z,996.74
2018-10-07T00:29:37.471Z,996.72
2018-10-07T00:30:37.447Z,996.72
2018-10-07T00:31:37.458Z,996.81
2018-10-07T00:32:37.426Z,996.83
2018-10-07T00:33:37.425Z,996.86
2018-10-07T00:34:37.411Z,996.85
2018-10-07T00:35:37.430Z,996.88
2018-10-07T00:36:37.390Z,996.89
2018-10-07T00:37:37.365Z,996.90
2018-10-07T00:38:37.363Z,997.00
2018-10-07T00:39:37.351Z,996.99
2018-10-07T00:40:37.370Z,997.10
2018-10-07T00:41:37.355Z,997.19
2018-10-07T00:42:37.307Z,997.17
2018-10-07T00:43:37.298Z,997.17
2018-10-07T00:44:37.291Z,997.20
2018-10-07T00:45:37.283Z,997.24
2018-10-07T00:46:37.305Z,997.22
2018-10-07T00:47:37.254Z,997.28
2018-10-07T00:48:37.235Z,997.26
2018-10-07T00:49:37.233Z,997.30
2018-10-07T00:50:37.228Z,997.40
2018-10-07T00:51:37.218Z,997.46
2018-10-07T00:52:37.194Z,997.48
2018-10-07T00:53:37.212Z,997.47
2018-10-07T00:54:37.188Z,997.48
2018-10-07T00:55:37.156Z,997.43
2018-10-07T00:56:37.193Z,997.52
2018-10-07T00:57:37.125Z,997.52
2018-10-07T00:58:37.123Z,997.53
2018-10-07T00:59:37.112Z,997.53
2018-10-07T01:00:37.088Z,997.53
2018-10-07T01:01:37.144Z,997.55
2018-10-07T01:02:37.074Z,997.61
2018-10-07T01:03:37.050Z,997.51
2018-10-07T01:04:37.053Z,997.53
2018-10-07T01:05:37.032Z,997.58
2018-10-07T01:06:37.019Z,997.60
2018-10-07T01:07:37.069Z,997.58
2018-10-07T01:08:36.996Z,997.59
2018-10-07T01:09:36.994Z,997.64
2018-10-07T01:10:36.980Z,997.70
2018-10-07T01:11:36.961Z,997.68
2018-10-07T01:12:36.955Z,997.69
2018-10-07T01:13:36.938Z,997.70
2018-10-07T01:14:36.939Z,997.71
2018-10-07T01:15:36.975Z,997.69
2018-10-07T01:16:36.900Z,997.68
2018-10-07T01:17:36.880Z,997.68
2018-10-07T01:18:36.885Z,997.64
2018-10-07T01:19:36.858Z,997.70
2018-10-07T01:20:36.860Z,997.76
2018-10-07T01:21:36.879Z,997.83
2018-10-07T01:22:36.827Z,997.86
2018-10-07T01:23:36.811Z,997.91
2018-10-07T01:24:36.808Z,997.84
2018-10-07T01:25:36.799Z,997.84
2018-10-07T01:26:36.776Z,997.89
2018-10-07T01:27:36.771Z,997.98
2018-10-07T01:28:36.752Z,998.00
2018-10-07T01:29:36.748Z,997.98
2018-10-07T01:30:36.735Z,998.06
2018-10-07T01:31:36.711Z,998.01
2018-10-07T01:32:36.740Z,998.06
2018-10-07T01:33:36.686Z,998.09
2018-10-07T01:34:36.670Z,998.10
2018-10-07T01:35:36.668Z,998.14
2018-10-07T01:36:36.662Z,998.16
2018-10-07T01:37:36.688Z,998.19
2018-10-07T01:38:36.636Z,998.23
2018-10-07T01:39:36.612Z,998.27
2018-10-07T01:40:36.616Z,998.28
2018-10-07T01:41:36.596Z,998.32
2018-10-07T01:42:36.583Z,998.27
2018-10-07T01:43:36.571Z,998.30
2018-10-07T01:44:36.567Z,998.31
2018-10-07T01:45:36.550Z,998.34
2018-10-07T01:46:36.538Z,998.34
2018-10-07T01:47:36.530Z,998.39
2018-10-07T01:48:36.519Z,998.42
2018-10-07T01:49:36.505Z,998.40
2018-10-07T01:50:36.491Z,998.37
2018-10-07T01:51:36.468Z,998.50
2018-10-07T01:52:36.466Z,998.55
2018-10-07T01:53:36.444Z,998.61
2018-10-07T01:54:36.426Z,998.64
2018-10-07T01:55:36.435Z,998.66
2018-10-07T01:56:36.409Z,998.71
2018-10-07T01:57:36.402Z,998.69
2018-10-07T01:58:36.386Z,998.75
2018-10-07T01:59:36.439Z,998.72
2018-10-07T02:00:36.370Z,998.76
2018-10-07T02:01:36.357Z,998.74
2018-10-07T02:02:36.353Z,998.77
2018-10-07T02:03:36.326Z,998.81
2018-10-07T02:04:36.316Z,998.85
2018-10-07T02:05:36.309Z,998.90
2018-10-07T02:06:36.294Z,998.92
2018-10-07T02:07:36.292Z,998.87
2018-10-07T02:08:36.267Z,998.85
2018-10-07T02:09:36.249Z,998.94
2018-10-07T02:10:36.295Z,998.96
2018-10-07T02:11:36.222Z,998.99
2018-10-07T02:12:36.210Z,998.99
2018-10-07T02:13:36.197Z,998.98
2018-10-07T02:14:36.192Z,999.04
2018-10-07T02:15:36.186Z,999.00
2018-10-07T02:16:36.229Z,999.00
2018-10-07T02:17:36.149Z,998.99
2018-10-07T02:18:36.149Z,998.99
2018-10-07T02:19:36.122Z,999.11
2018-10-07T02:20:36.117Z,999.12
2018-10-07T02:21:36.106Z,999.13
2018-10-07T02:22:36.102Z,999.10
2018-10-07T02:23:36.083Z,999.15
2018-10-07T02:24:36.073Z,999.22
2018-10-07T02:25:36.050Z,999.14
2018-10-07T02:26:36.042Z,999.18
2018-10-07T02:27:36.048Z,999.19
2018-10-07T02:28:36.018Z,999.23
2018-10-07T02:29:36.013Z,999.25
2018-10-07T02:30:35.983Z,999.29
2018-10-07T02:31:35.977Z,999.38
2018-10-07T02:32:36.047Z,999.45
2018-10-07T02:33:35.954Z,999.47
2018-10-07T02:34:35.946Z,999.52
2018-10-07T02:35:35.919Z,999.58
2018-10-07T02:36:35.919Z,999.58
2018-10-07T02:37:35.909Z,999.55
2018-10-07T02:38:35.952Z,999.59
2018-10-07T02:39:35.877Z,999.64
2018-10-07T02:40:35.871Z,999.62
2018-10-07T02:41:35.853Z,999.60
2018-10-07T02:42:35.845Z,999.54
2018-10-07T02:43:35.833Z,999.55
2018-10-07T02:44:35.842Z,999.62
2018-10-07T02:45:35.794Z,999.63
2018-10-07T02:46:35.789Z,999.76
2018-10-07T02:47:35.777Z,999.68
2018-10-07T02:48:35.785Z,999.69
2018-10-07T02:49:35.754Z,999.74
2018-10-07T02:50:35.780Z,999.70
2018-10-07T02:51:35.723Z,999.78
2018-10-07T02:52:35.699Z,999.73
2018-10-07T02:53:35.697Z,999.78
2018-10-07T02:54:35.690Z,999.80
2018-10-07T02:55:35.692Z,999.84
2018-10-07T02:56:35.650Z,999.84
2018-10-07T02:57:35.634Z,999.91
2018-10-07T02:58:35.631Z,999.93
2018-10-07T02:59:35.645Z,999.95
2018-10-07T03:00:35.628Z,1000.00
2018-10-07T03:01:35.587Z,999.98
2018-10-07T03:02:35.576Z,1000.03
2018-10-07T03:03:35.568Z,1000.13
2018-10-07T03:04:35.559Z,1000.12
2018-10-07T03:05:35.558Z,1000.18
2018-10-07T03:06:35.515Z,1000.21
2018-10-07T03:07:35.534Z,1000.26
2018-10-07T03:08:35.508Z,1000.19
2018-10-07T03:09:35.482Z,1000.24
2018-10-07T03:10:35.495Z,1000.30
2018-10-07T03:11:35.446Z,1000.32
2018-10-07T03:12:35.486Z,1000.39
2018-10-07T03:13:35.430Z,1000.47
2018-10-07T03:14:35.406Z,1000.35
2018-10-07T03:15:35.425Z,1000.48
2018-10-07T03:16:35.383Z,1000.47
2018-10-07T03:17:35.366Z,1000.52
2018-10-07T03:18:35.358Z,1000.63
2018-10-07T03:19:35.344Z,1000.60
2018-10-07T03:20:35.357Z,1000.73
2018-10-07T03:21:35.393Z,1000.74
2018-10-07T03:22:35.296Z,1000.82
2018-10-07T03:23:35.300Z,1000.81
2018-10-07T03:24:35.267Z,1000.90
2018-10-07T03:25:35.251Z,1000.88
2018-10-07T03:26:35.258Z,1000.94
2018-10-07T03:27:35.243Z,1000.97
2018-10-07T03:28:35.215Z,1001.01
2018-10-07T03:29:35.219Z,1000.99
2018-10-07T03:30:35.218Z,1001.03
2018-10-07T03:31:35.215Z,1000.98
2018-10-07T03:32:35.192Z,1000.91
2018-10-07T03:33:35.140Z,1001.08
2018-10-07T03:34:35.143Z,1001.03
2018-10-07T03:35:35.121Z,1000.97
2018-10-07T03:36:35.102Z,1001.00
2018-10-07T03:37:35.125Z,1000.94
2018-10-07T03:38:35.081Z,1000.96
2018-10-07T03:39:35.086Z,1000.91
2018-10-07T03:40:35.057Z,1000.93
2018-10-07T03:41:35.027Z,1000.97
2018-10-07T03:42:35.037Z,1000.97
2018-10-07T03:43:35.009Z,1000.98
2018-10-07T03:44:35.069Z,1001.00
2018-10-07T03:45:34.979Z,1000.92
2018-10-07T03:46:34.963Z,1001.05
2018-10-07T03:47:34.950Z,1001.09
2018-10-07T03:48:34.929Z,1001.00
2018-10-07T03:49:34.912Z,1001.11
2018-10-07T03:50:34.987Z,1001.14
2018-10-07T03:51:34.896Z,1001.17
2018-10-07T03:52:34.867Z,1001.16
2018-10-07T03:53:34.859Z,1001.23
2018-10-07T03:54:34.851Z,1001.14
2018-10-07T03:55:34.840Z,1001.26
2018-10-07T03:56:34.821Z,1001.21
2018-10-07T03:57:34.846Z,1001.23
2018-10-07T03:58:34.797Z,1001.26
2018-10-07T03:59:34.775Z,1001.18
2018-10-07T04:00:34.761Z,1001.23
2018-10-07T04:01:34.760Z,1001.10
2018-10-07T04:02:34.785Z,1001.15
2018-10-07T04:03:34.718Z,1001.11
2018-10-07T04:04:34.707Z,1001.12
2018-10-07T04:05:34.692Z,1001.15
2018-10-07T04:06:34.670Z,1001.17
2018-10-07T04:07:34.668Z,1001.14
2018-10-07T04:08:34.711Z,1001.18
2018-10-07T04:09:34.635Z,1001.16
2018-10-07T04:10:34.615Z,1001.26
2018-10-07T04:11:34.603Z,1001.24
2018-10-07T04:12:34.599Z,1001.30
2018-10-07T04:13:34.571Z,1001.29
2018-10-07T04:14:34.558Z,1001.34
2018-10-07T04:15:34.547Z,1001.39
2018-10-07T04:16:34.537Z,1001.40
2018-10-07T04:17:34.517Z,1001.42
2018-10-07T04:18:34.499Z,1001.42
2018-10-07T04:19:34.516Z,1001.37
2018-10-07T04:20:34.472Z,1001.42
2018-10-07T04:21:34.457Z,1001.39
2018-10-07T04:22:34.453Z,1001.41
2018-10-07T04:23:34.428Z,1001.41
2018-10-07T04:24:34.483Z,1001.46
2018-10-07T04:25:34.405Z,1001.50
2018-10-07T04:26:34.380Z,1001.54
2018-10-07T04:27:34.372Z,1001.56
2018-10-07T04:28:34.366Z,1001.61
2018-10-07T04:29:34.348Z,1001.59
2018-10-07T04:30:34.481Z,1001.60
2018-10-07T04:31:34.319Z,1001.66
2018-10-07T04:32:34.295Z,1001.68
2018-10-07T04:33:34.275Z,1001.68
2018-10-07T04:34:34.272Z,1001.66
2018-10-07T04:35:34.295Z,1001.66
2018-10-07T04:36:34.243Z,1001.67
2018-10-07T04:37:34.224Z,1001.60
2018-10-07T04:38:34.219Z,1001.56
2018-10-07T04:39:34.207Z,1001.56
2018-10-07T04:40:34.233Z,1001.50
2018-10-07T04:41:34.175Z,1001.54
2018-10-07T04:42:34.167Z,1001.63
2018-10-07T04:43:34.136Z,1001.67
2018-10-07T04:44:34.127Z,1001.70
2018-10-07T04:45:34.104Z,1001.74
2018-10-07T04:46:34.114Z,1001.79
2018-10-07T04:47:34.092Z,1001.80
2018-10-07T04:48:34.079Z,1001.82
2018-10-07T04:49:34.048Z,1001.86
2018-10-07T04:50:34.039Z,1001.87
2018-10-07T04:51:34.037Z,1001.84
2018-10-07T04:52:34.005Z,1001.83
2018-10-07T04:53:33.996Z,1001.83
2018-10-07T04:54:33.985Z,1001.81
2018-10-07T04:55:33.968Z,1001.84
2018-10-07T04:56:34.018Z,1001.84
2018-10-07T04:57:33.935Z,1001.88
2018-10-07T04:58:33.926Z,1001.84
2018-10-07T04:59:33.910Z,1001.84
2018-10-07T05:00:33.901Z,1001.85
2018-10-07T05:01:33.871Z,1001.87
2018-10-07T05:02:33.953Z,1001.88
2018-10-07T05:03:33.842Z,1001.87
2018-10-07T05:04:33.826Z,1001.85
2018-10-07T05:05:33.824Z,1001.85
2018-10-07T05:06:33.800Z,1001.84
2018-10-07T05:07:33.783Z,1001.81
2018-10-07T05:08:33.780Z,1001.85
2018-10-07T05:09:33.760Z,1001.91
2018-10-07T05:10:33.755Z,1001.89
2018-10-07T05:11:33.723Z,1001.94
2018-10-07T05:12:33.766Z,1001.99
2018-10-07T05:13:33.707Z,1001.98
2018-10-07T05:14:33.679Z,1002.05
2018-10-07T05:15:33.664Z,1002.07
2018-10-07T05:16:33.659Z,1002.16
2018-10-07T05:17:33.646Z,1002.20
2018-10-07T05:18:33.639Z,1002.25
2018-10-07T05:19:33.655Z,1002.29
2018-10-07T05:20:33.606Z,1002.35
2018-10-07T05:21:33.577Z,1002.38
2018-10-07T05:22:33.577Z,1002.41
2018-10-07T05:23:33.554Z,1002.46
2018-10-07T05:24:33.563Z,1002.50
2018-10-07T05:25:33.521Z,1002.56
2018-10-07T05:26:33.502Z,1002.61
2018-10-07T05:27:33.525Z,1002.68
2018-10-07T05:28:33.484Z,1002.75
2018-10-07T05:29:33.460Z,1002.75
2018-10-07T05:30:33.517Z,1002.75
2018-10-07T05:31:33.443Z,1002.79
2018-10-07T05:32:33.429Z,1002.71
2018-10-07T05:33:33.446Z,1002.74
2018-10-07T05:34:33.393Z,1002.79
2018-10-07T05:35:33.372Z,1002.77
2018-10-07T05:36:33.379Z,1002.80
2018-10-07T05:37:33.357Z,1002.77
2018-10-07T05:38:33.340Z,1002.83
2018-10-07T05:39:33.347Z,1002.83
2018-10-07T05:40:33.295Z,1002.88
2018-10-07T05:41:33.323Z,1002.90
2018-10-07T05:42:33.270Z,1002.92
2018-10-07T05:43:33.260Z,1002.89
2018-10-07T05:44:33.425Z,1002.84
2018-10-07T05:45:33.236Z,1002.91
2018-10-07T05:46:33.256Z,1002.91
2018-10-07T05:47:33.190Z,1002.95
2018-10-07T05:48:33.182Z,1002.98
2018-10-07T05:49:33.235Z,1003.04
2018-10-07T05:50:33.176Z,1002.97
2018-10-07T05:51:33.138Z,1003.05
2018-10-07T05:52:33.128Z,1003.07
2018-10-07T05:53:33.114Z,1003.09
2018-10-07T05:54:33.093Z,1003.17
2018-10-07T05:55:33.150Z,1003.12
2018-10-07T05:56:33.104Z,1003.21
2018-10-07T05:57:33.056Z,1003.20
2018-10-07T05:58:33.031Z,1003.24
2018-10-07T05:59:33.056Z,1003.30
2018-10-07T06:00:33.014Z,1003.27
2018-10-07T06:01:33.046Z,1003.34
2018-10-07T06:02:32.989Z,1003.33
2018-10-07T06:03:32.970Z,1003.35
2018-10-07T06:04:32.971Z,1003.31
2018-10-07T06:05:32.927Z,1003.38
2018-10-07T06:06:32.919Z,1003.37
2018-10-07T06:07:32.910Z,1003.37
2018-10-07T06:08:32.887Z,1003.36
2018-10-07T06:09:32.953Z,1003.30
2018-10-07T06:10:32.868Z,1003.37
2018-10-07T06:11:32.846Z,1003.40
2018-10-07T06:12:32.831Z,1003.42
2018-10-07T06:13:32.808Z,1003.39
2018-10-07T06:14:32.793Z,1003.38
2018-10-07T06:15:32.814Z,1003.44
2018-10-07T06:16:32.766Z,1003.45
2018-10-07T06:17:32.762Z,1003.52
2018-10-07T06:18:32.753Z,1003.54
2018-10-07T06:19:32.724Z,1003.57
2018-10-07T06:20:32.781Z,1003.60
2018-10-07T06:21:32.732Z,1003.66
2018-10-07T06:22:32.676Z,1003.63
2018-10-07T06:23:32.672Z,1003.63
2018-10-07T06:24:32.643Z,1003.71
2018-10-07T06:25:32.641Z,1003.67
2018-10-07T06:26:32.663Z,1003.72
2018-10-07T06:27:32.614Z,1003.71
2018-10-07T06:28:32.586Z,1003.77
2018-10-07T06:29:32.579Z,1003.78
2018-10-07T06:30:32.559Z,1003.75
2018-10-07T06:31:32.582Z,1003.74
2018-10-07T06:32:32.523Z,1003.82
2018-10-07T06:33:32.509Z,1003.80
2018-10-07T06:34:32.508Z,1003.91
2018-10-07T06:35:32.502Z,1003.90
2018-10-07T06:36:32.509Z,1003.91
2018-10-07T06:37:32.483Z,1003.92
2018-10-07T06:38:32.446Z,1003.97
2018-10-07T06:39:32.421Z,1003.97
2018-10-07T06:40:32.433Z,1003.98
2018-10-07T06:41:32.486Z,1004.06
2018-10-07T06:42:32.376Z,1004.10
2018-10-07T06:43:32.374Z,1004.14
2018-10-07T06:44:32.344Z,1004.25
2018-10-07T06:45:32.400Z,1004.19
2018-10-07T06:46:32.323Z,1004.23
2018-10-07T06:47:32.344Z,1004.26
2018-10-07T06:48:32.300Z,1004.26
2018-10-07T06:49:32.286Z,1004.29
2018-10-07T06:50:32.252Z,1004.27
2018-10-07T06:51:32.247Z,1004.29
2018-10-07T06:52:32.257Z,1004.28
2018-10-07T06:53:32.242Z,1004.34
2018-10-07T06:54:32.193Z,1004.31
2018-10-07T06:55:32.180Z,1004.32
2018-10-07T06:56:32.172Z,1004.35
2018-10-07T06:57:32.154Z,1004.38
2018-10-07T06:58:32.143Z,1004.45
2018-10-07T06:59:32.157Z,1004.43
2018-10-07T07:00:32.105Z,1004.45
2018-10-07T07:01:32.096Z,1004.51
2018-10-07T07:02:32.080Z,1004.45
2018-10-07T07:03:32.103Z,1004.47
2018-10-07T07:04:32.054Z,1004.48
2018-10-07T07:05:32.072Z,1004.43
2018-10-07T07:06:32.081Z,1004.52
2018-10-07T07:07:32.023Z,1004.49
2018-10-07T07:08:31.982Z,1004.51
2018-10-07T07:09:31.999Z,1004.51
2018-10-07T07:10:31.954Z,1004.54
2018-10-07T07:11:31.968Z,1004.49
2018-10-07T07:12:31.924Z,1004.56
2018-10-07T07:13:31.905Z,1004.53
2018-10-07T07:14:31.904Z,1004.58
2018-10-07T07:15:31.882Z,1004.61
2018-10-07T07:16:31.928Z,1004.64
2018-10-07T07:17:31.844Z,1004.66
2018-10-07T07:18:31.917Z,1004.71
2018-10-07T07:19:31.825Z,1004.70
2018-10-07T07:20:31.841Z,1004.73
2018-10-07T07:21:31.797Z,1004.71
2018-10-07T07:22:31.817Z,1004.72
2018-10-07T07:23:31.754Z,1004.74
2018-10-07T07:24:31.740Z,1004.77
2018-10-07T07:25:31.734Z,1004.77
2018-10-07T07:26:31.712Z,1004.81
2018-10-07T07:27:31.733Z,1004.80
2018-10-07T07:28:31.685Z,1004.83
2018-10-07T07:29:31.665Z,1004.80
2018-10-07T07:30:31.677Z,1004.87
2018-10-07T07:31:31.774Z,1004.84
2018-10-07T07:32:31.627Z,1004.86
2018-10-07T07:33:31.649Z,1004.89
2018-10-07T07:34:31.594Z,1004.87
2018-10-07T07:35:31.575Z,1004.92
2018-10-07T07:36:31.556Z,1004.89
2018-10-07T07:37:31.554Z,1004.91
2018-10-07T07:38:31.555Z,1004.92
2018-10-07T07:39:31.514Z,1004.84
2018-10-07T07:40:31.504Z,1004.87
2018-10-07T07:41:31.486Z,1004.83
2018-10-07T07:42:31.633Z,1004.81
2018-10-07T07:43:31.528Z,1004.83
2018-10-07T07:44:31.435Z,1004.84
2018-10-07T07:45:31.424Z,1004.86
2018-10-07T07:46:31.419Z,1004.86
2018-10-07T07:47:31.404Z,1004.87
2018-10-07T07:48:31.378Z,1004.92
2018-10-07T07:49:31.400Z,1004.89
2018-10-07T07:50:31.354Z,1004.91
2018-10-07T07:51:31.345Z,1004.98
2018-10-07T07:52:31.321Z,1004.94
2018-10-07T07:53:31.313Z,1005.00
2018-10-07T07:54:31.291Z,1004.99
2018-10-07T07:55:31.291Z,1005.03
2018-10-07T07:56:31.507Z,1004.99
2018-10-07T07:57:31.275Z,1005.05
2018-10-07T07:58:31.241Z,1005.04
2018-10-07T07:59:31.221Z,1005.04
2018-10-07T08:00:31.202Z,1005.00
2018-10-07T08:01:31.184Z,1005.03
2018-10-07T08:02:31.178Z,1005.01
2018-10-07T08:03:31.166Z,1004.99
2018-10-07T08:04:31.149Z,1005.03
2018-10-07T08:05:31.141Z,1005.05
2018-10-07T08:06:39.440Z,1005.06
2018-10-07T08:07:31.158Z,1005.09
2018-10-07T08:08:31.080Z,1005.08
2018-10-07T08:09:38.329Z,1005.09
2018-10-07T08:10:31.066Z,1005.11
2018-10-07T08:11:31.042Z,1005.09
2018-10-07T08:12:31.029Z,1005.12
2018-10-07T08:13:31.033Z,1005.13
2018-10-07T08:14:31.000Z,1005.17
2018-10-07T08:15:30.978Z,1005.19
2018-10-07T08:16:30.987Z,1005.25
2018-10-07T08:17:31.092Z,1005.23
2018-10-07T08:18:30.969Z,1005.24
2018-10-07T08:19:30.921Z,1005.22
2018-10-07T08:20:30.916Z,1005.21
2018-10-07T08:21:30.921Z,1005.24
2018-10-07T08:22:30.886Z,1005.30
2018-10-07T08:23:30.974Z,1005.32
2018-10-07T08:24:30.845Z,1005.28
2018-10-07T08:25:30.869Z,1005.32
2018-10-07T08:26:30.877Z,1005.35
2018-10-07T08:27:30.808Z,1005.39
2018-10-07T08:28:30.783Z,1005.39
2018-10-07T08:29:30.800Z,1005.41
2018-10-07T08:30:30.769Z,1005.43
2018-10-07T08:31:30.746Z,1005.48
2018-10-07T08:32:30.741Z,1005.48
2018-10-07T08:33:30.713Z,1005.47
2018-10-07T08:34:30.712Z,1005.50
2018-10-07T08:35:30.687Z,1005.52
2018-10-07T08:36:30.670Z,1005.52
2018-10-07T08:37:30.685Z,1005.54
2018-10-07T08:38:30.639Z,1005.57
2018-10-07T08:39:30.632Z,1005.54
2018-10-07T08:40:30.621Z,1005.57
2018-10-07T08:41:30.616Z,1005.55
2018-10-07T08:42:30.611Z,1005.56
2018-10-07T08:43:30.576Z,1005.60
2018-10-07T08:44:30.555Z,1005.62
2018-10-07T08:45:30.576Z,1005.70
2018-10-07T08:46:30.523Z,1005.77
2018-10-07T08:47:30.545Z,1005.73
2018-10-07T08:48:30.493Z,1005.76
2018-10-07T08:49:30.492Z,1005.85
2018-10-07T08:50:30.474Z,1005.81
2018-10-07T08:51:30.448Z,1005.83
2018-10-07T08:52:30.490Z,1005.87
2018-10-07T08:53:30.419Z,1005.87
2018-10-07T08:54:30.414Z,1005.91
2018-10-07T08:55:30.386Z,1005.96
2018-10-07T08:56:30.441Z,1005.99
2018-10-07T08:57:30.360Z,1005.96
2018-10-07T08:58:30.362Z,1005.98
2018-10-07T08:59:30.328Z,1006.01
2018-10-07T09:00:30.355Z,1006.00
2018-10-07T09:01:30.312Z,1006.02
2018-10-07T09:02:30.327Z,1006.04
2018-10-07T09:03:30.287Z,1006.08
2018-10-07T09:04:30.272Z,1006.09
2018-10-07T09:05:30.255Z,1006.07
2018-10-07T09:06:30.230Z,1006.08
2018-10-07T09:07:30.275Z,1006.08
2018-10-07T09:08:30.216Z,1006.12
2018-10-07T09:09:30.203Z,1006.12
2018-10-07T09:10:30.175Z,1006.14
2018-10-07T09:11:30.269Z,1006.10
2018-10-07T09:12:30.143Z,1006.15
2018-10-07T09:13:30.193Z,1006.17
2018-10-07T09:14:30.170Z,1006.14
2018-10-07T09:15:30.121Z,1006.09
2018-10-07T09:16:30.150Z,1006.07
2018-10-07T09:17:30.081Z,1006.12
2018-10-07T09:18:30.077Z,1006.08
2018-10-07T09:19:30.049Z,1006.12
2018-10-07T09:20:30.054Z,1006.12
2018-10-07T09:21:30.018Z,1006.17
2018-10-07T09:22:30.014Z,1006.17
2018-10-07T09:23:29.991Z,1006.19
2018-10-07T09:24:30.007Z,1006.20
2018-10-07T09:25:29.962Z,1006.21
2018-10-07T09:26:29.947Z,1006.24
2018-10-07T09:27:29.955Z,1006.26
2018-10-07T09:28:29.922Z,1006.26
2018-10-07T09:29:29.907Z,1006.29
2018-10-07T09:30:29.889Z,1006.28
2018-10-07T09:31:29.917Z,1006.36
2018-10-07T09:32:29.908Z,1006.38
2018-10-07T09:33:29.852Z,1006.42
2018-10-07T09:34:29.841Z,1006.46
2018-10-07T09:35:29.829Z,1006.45
2018-10-07T09:36:29.855Z,1006.50
2018-10-07T09:37:29.796Z,1006.51
2018-10-07T09:38:29.785Z,1006.52
2018-10-07T09:39:29.802Z,1006.55
2018-10-07T09:40:29.770Z,1006.56
2018-10-07T09:41:29.804Z,1006.58
2018-10-07T09:42:29.724Z,1006.61
2018-10-07T09:43:30.482Z,1006.64
2018-10-07T09:44:29.708Z,1006.68
2018-10-07T09:45:29.687Z,1006.69
2018-10-07T09:46:29.676Z,1006.69
2018-10-07T09:47:29.689Z,1006.75
2018-10-07T09:48:29.650Z,1006.68
2018-10-07T09:49:29.637Z,1006.68
2018-10-07T09:50:29.609Z,1006.70
2018-10-07T09:51:29.596Z,1006.64
2018-10-07T09:52:29.653Z,1006.69
2018-10-07T09:53:29.568Z,1006.69
2018-10-07T09:54:29.558Z,1006.71
2018-10-07T09:55:29.558Z,1006.73
2018-10-07T09:56:29.531Z,1006.73
2018-10-07T09:57:29.514Z,1006.75
2018-10-07T09:58:29.513Z,1006.69
2018-10-07T09:59:29.481Z,1006.78
2018-10-07T10:00:29.481Z,1006.75
2018-10-07T10:01:29.505Z,1006.74
2018-10-07T10:02:29.454Z,1006.76
2018-10-07T10:03:29.468Z,1006.77
2018-10-07T10:04:29.492Z,1006.79
2018-10-07T10:05:29.414Z,1006.81
2018-10-07T10:06:29.430Z,1006.83
2018-10-07T10:07:29.389Z,1006.83
2018-10-07T10:08:29.415Z,1006.86
2018-10-07T10:09:29.363Z,1006.88
2018-10-07T10:10:29.339Z,1006.88
2018-10-07T10:11:29.335Z,1006.88
2018-10-07T10:12:29.305Z,1006.80
2018-10-07T10:13:29.300Z,1006.82
2018-10-07T10:14:29.323Z,1006.83
2018-10-07T10:15:29.265Z,1006.80
2018-10-07T10:16:29.261Z,1006.78
2018-10-07T10:17:29.289Z,1006.75
2018-10-07T10:18:29.228Z,1006.74
2018-10-07T10:19:29.342Z,1006.78
2018-10-07T10:20:29.209Z,1006.75
2018-10-07T10:21:29.202Z,1006.79
2018-10-07T10:22:29.178Z,1006.80
2018-10-07T10:23:29.174Z,1006.80
2018-10-07T10:24:29.149Z,1006.80
2018-10-07T10:25:29.172Z,1006.76
2018-10-07T10:26:29.117Z,1006.74
2018-10-07T10:27:29.106Z,1006.83
2018-10-07T10:28:29.109Z,1006.87
2018-10-07T10:29:29.086Z,1006.86
2018-10-07T10:30:29.108Z,1006.87
2018-10-07T10:31:29.060Z,1006.88
2018-10-07T10:32:29.042Z,1006.87
2018-10-07T10:33:29.023Z,1006.87
2018-10-07T10:34:29.009Z,1006.86
2018-10-07T10:35:29.038Z,1006.88
2018-10-07T10:36:28.983Z,1006.95
2018-10-07T10:37:29.018Z,1006.92
2018-10-07T10:38:28.960Z,1006.98
2018-10-07T10:39:28.958Z,1006.99
2018-10-07T10:40:28.946Z,1006.96
2018-10-07T10:41:28.950Z,1006.96
2018-10-07T10:42:28.923Z,1007.00
2018-10-07T10:43:28.899Z,1007.00
2018-10-07T10:44:28.890Z,1007.03
2018-10-07T10:45:28.881Z,1007.04
2018-10-07T10:46:28.917Z,1007.04
2018-10-07T10:47:28.851Z,1007.04
2018-10-07T10:48:28.843Z,1007.07
2018-10-07T10:49:28.824Z,1007.11
2018-10-07T10:50:28.795Z,1007.03
2018-10-07T10:51:28.794Z,1007.06
2018-10-07T10:52:28.800Z,1007.03
2018-10-07T10:53:28.755Z,1007.06
2018-10-07T10:54:28.751Z,1007.03
2018-10-07T10:55:28.747Z,1007.05
2018-10-07T10:56:28.747Z,1007.09
2018-10-07T10:57:28.705Z,1007.09
2018-10-07T10:58:28.702Z,1007.10
2018-10-07T10:59:28.687Z,1007.14
2018-10-07T11:00:28.668Z,1007.18
2018-10-07T11:01:28.933Z,1007.16
2018-10-07T11:02:28.637Z,1007.17
2018-10-07T11:03:28.619Z,1007.12
2018-10-07T11:04:28.646Z,1007.15
2018-10-07T11:05:28.613Z,1007.21
2018-10-07T11:06:28.581Z,1007.16
2018-10-07T11:07:28.573Z,1007.19
2018-10-07T11:08:28.552Z,1007.18
2018-10-07T11:09:28.584Z,1007.12
2018-10-07T11:10:28.528Z,1007.11
2018-10-07T11:11:28.525Z,1007.09
2018-10-07T11:12:28.536Z,1007.15
2018-10-07T11:13:28.494Z,1007.16
2018-10-07T11:14:28.483Z,1007.17
2018-10-07T11:15:28.533Z,1007.15
2018-10-07T11:16:28.461Z,1007.15
2018-10-07T11:17:28.459Z,1007.14
2018-10-07T11:18:28.427Z,1007.15
2018-10-07T11:19:28.478Z,1007.11
2018-10-07T11:20:28.393Z,1007.15
2018-10-07T11:21:28.400Z,1007.15
2018-10-07T11:22:28.413Z,1007.15
2018-10-07T11:23:28.379Z,1007.13
2018-10-07T11:24:28.349Z,1007.19
2018-10-07T11:25:28.327Z,1007.12
2018-10-07T11:26:28.314Z,1007.22
2018-10-07T11:27:28.381Z,1007.19
2018-10-07T11:28:28.290Z,1007.20
2018-10-07T11:29:28.298Z,1007.21
2018-10-07T11:30:28.279Z,1007.21
2018-10-07T11:31:28.270Z,1007.23
2018-10-07T11:32:28.246Z,1007.16
2018-10-07T11:33:28.250Z,1007.13
2018-10-07T11:34:28.229Z,1007.21
2018-10-07T11:35:28.243Z,1007.16
2018-10-07T11:36:28.198Z,1007.19
2018-10-07T11:37:28.189Z,1007.20
2018-10-07T11:38:28.164Z,1007.22
2018-10-07T11:39:28.163Z,1007.21
2018-10-07T11:40:28.203Z,1007.20
2018-10-07T11:41:28.139Z,1007.18
2018-10-07T11:42:28.120Z,1007.16
2018-10-07T11:43:28.120Z,1007.15
2018-10-07T11:44:28.102Z,1007.12
2018-10-07T11:45:28.079Z,1007.15
2018-10-07T11:46:28.101Z,1007.14
2018-10-07T11:47:28.063Z,1007.10
2018-10-07T11:48:28.064Z,1007.18
2018-10-07T11:49:28.035Z,1007.09
2018-10-07T11:50:28.079Z,1007.08
2018-10-07T11:51:27.999Z,1007.08
2018-10-07T11:52:28.005Z,1007.07
2018-10-07T11:53:27.992Z,1007.05
2018-10-07T11:54:27.973Z,1007.07
2018-10-07T11:55:27.959Z,1007.01
2018-10-07T11:56:27.942Z,1007.05
2018-10-07T11:57:27.934Z,1007.03
2018-10-07T11:58:27.931Z,1007.06
2018-10-07T11:59:27.917Z,1007.03
2018-10-07T12:00:27.895Z,1007.04
2018-10-07T12:01:27.873Z,1007.07
2018-10-07T12:02:27.877Z,1007.04
2018-10-07T12:03:27.923Z,1007.06
2018-10-07T12:04:27.845Z,1007.06
2018-10-07T12:05:27.828Z,1007.04
2018-10-07T12:06:27.811Z,1007.04
2018-10-07T12:07:27.814Z,1006.97
2018-10-07T12:08:27.792Z,1006.95
2018-10-07T12:09:27.811Z,1006.97
2018-10-07T12:10:27.767Z,1007.02
2018-10-07T12:11:27.753Z,1006.96